createdAt,value
2023-09-03T00:00:18.465Z,85.99
2023-09-03T00:02:46.499Z,85.76
2023-09-03T00:05:14.512Z,85.59
2023-09-03T00:07:42.704Z,85.87
2023-09-03T00:10:12.434Z,86.33
2023-09-03T00:12:40.401Z,86.18
2023-09-03T00:15:11.065Z,86.50
2023-09-03T00:17:41.970Z,86.20
2023-09-03T00:20:11.393Z,86.27
2023-09-03T00:22:40.134Z,85.90
2023-09-03T00:25:09.001Z,85.97
2023-09-03T00:27:42.558Z,84.74
2023-09-03T00:30:14.100Z,85.62
2023-09-03T00:32:48.268Z,85.48
2023-09-03T00:35:16.406Z,85.33
2023-09-03T00:37:44.455Z,86.08
2023-09-03T00:40:13.413Z,86.07
2023-09-03T00:42:45.196Z,86.24
2023-09-03T00:45:13.309Z,86.21
2023-09-03T00:47:41.713Z,86.06
2023-09-03T00:50:10.895Z,86.38
2023-09-03T00:52:39.624Z,87.20
2023-09-03T00:55:09.025Z,87.12
2023-09-03T00:57:39.641Z,86.84
2023-09-03T01:00:12.458Z,86.54
2023-09-03T01:02:45.239Z,86.51
2023-09-03T01:05:14.263Z,86.35
2023-09-03T01:07:44.750Z,85.20
2023-09-03T01:10:13.099Z,85.82
2023-09-03T01:12:52.908Z,86.38
2023-09-03T01:15:31.734Z,86.12
2023-09-03T01:18:07.598Z,86.45
2023-09-03T01:20:40.893Z,86.37
2023-09-03T01:23:39.771Z,86.56
2023-09-03T01:26:23.820Z,87.32
2023-09-03T01:28:56.288Z,87.29
2023-09-03T01:31:25.210Z,86.73
2023-09-03T01:33:59.907Z,87.39
2023-09-03T01:36:28.096Z,87.38
2023-09-03T01:39:00.797Z,87.29
2023-09-03T01:41:29.955Z,87.44
2023-09-03T01:43:59.449Z,87.39
2023-09-03T01:46:43.876Z,87.99
2023-09-03T01:49:26.210Z,87.59
2023-09-03T01:52:05.747Z,87.88
2023-09-03T01:54:47.090Z,88.26
2023-09-03T01:57:20.915Z,88.49
2023-09-03T01:59:56.169Z,88.96
2023-09-03T02:02:27.626Z,89.09
2023-09-03T02:04:56.282Z,89.42
2023-09-03T02:07:24.327Z,89.83
2023-09-03T02:09:53.501Z,89.93
2023-09-03T02:12:25.068Z,89.96
2023-09-03T02:14:54.788Z,89.55
2023-09-03T02:17:22.775Z,89.29
2023-09-03T02:19:53.003Z,88.94
2023-09-03T02:22:21.488Z,89.01
2023-09-03T02:24:50.089Z,88.58
2023-09-03T02:27:18.019Z,88.57
2023-09-03T02:29:50.313Z,88.08
2023-09-03T02:32:19.649Z,88.41
2023-09-03T02:34:47.961Z,88.96
2023-09-03T02:37:15.984Z,89.20
2023-09-03T02:39:46.575Z,89.14
2023-09-03T02:42:16.903Z,89.40
2023-09-03T02:44:45.049Z,89.12
2023-09-03T02:47:13.009Z,88.79
2023-09-03T02:49:42.475Z,89.58
2023-09-03T02:52:10.616Z,89.66
2023-09-03T02:54:39.545Z,89.46
2023-09-03T02:57:07.537Z,88.69
2023-09-03T02:59:38.374Z,88.99
2023-09-03T03:02:08.007Z,88.99
2023-09-03T03:04:37.282Z,89.91
2023-09-03T03:07:07.047Z,89.68
2023-09-03T03:09:38.015Z,89.43
2023-09-03T03:12:06.689Z,88.42
2023-09-03T03:14:37.089Z,88.69
2023-09-03T03:17:05.502Z,89.15
2023-09-03T03:19:35.124Z,89.23
2023-09-03T03:22:04.483Z,89.34
2023-09-03T03:24:33.961Z,89.45
2023-09-03T03:27:02.461Z,89.33
2023-09-03T03:29:30.559Z,89.07
2023-09-03T03:31:58.594Z,88.88
2023-09-03T03:34:27.504Z,88.76
2023-09-03T03:36:55.750Z,88.94
2023-09-03T03:39:23.903Z,88.74
2023-09-03T03:41:53.689Z,88.39
2023-09-03T03:44:21.874Z,88.53
2023-09-03T03:46:49.942Z,88.43
2023-09-03T03:49:18.264Z,88.56
2023-09-03T03:51:46.257Z,88.78
2023-09-03T03:54:14.351Z,88.88
2023-09-03T03:56:42.386Z,88.77
2023-09-03T03:59:12.051Z,88.75
2023-09-03T04:01:40.572Z,88.48
2023-09-03T04:04:08.634Z,88.76
2023-09-03T04:06:36.783Z,89.37
2023-09-03T04:09:05.001Z,89.69
2023-09-03T04:11:33.065Z,89.81
2023-09-03T04:14:01.208Z,90.06
2023-09-03T04:16:30.521Z,90.28
2023-09-03T04:18:58.558Z,90.16
2023-09-03T04:21:26.573Z,89.96
2023-09-03T04:23:54.508Z,90.06
2023-09-03T04:26:22.538Z,89.62
2023-09-03T04:28:50.474Z,89.33
2023-09-03T04:31:18.489Z,89.97
2023-09-03T04:33:47.442Z,90.12
2023-09-03T04:36:15.431Z,90.10
2023-09-03T04:38:43.444Z,90.41
2023-09-03T04:41:11.521Z,90.17
2023-09-03T04:43:39.530Z,90.38
2023-09-03T04:46:07.754Z,89.98
2023-09-03T04:48:35.715Z,90.61
2023-09-03T04:51:08.953Z,91.28
2023-09-03T04:53:37.193Z,91.75
2023-09-03T04:56:13.187Z,92.77
2023-09-03T04:58:41.203Z,92.80
2023-09-03T05:01:16.624Z,91.49
2023-09-03T05:03:44.766Z,91.32
2023-09-03T05:06:16.800Z,91.61
2023-09-03T05:08:46.698Z,91.62
2023-09-03T05:11:15.074Z,91.46
2023-09-03T05:13:43.111Z,90.18
2023-09-03T05:16:11.167Z,91.08
2023-09-03T05:18:39.190Z,90.81
2023-09-03T05:21:10.719Z,90.90
2023-09-03T05:23:40.792Z,90.39
2023-09-03T05:26:08.817Z,90.28
2023-09-03T05:28:36.867Z,90.50
2023-09-03T05:31:05.072Z,90.44
2023-09-03T05:33:33.161Z,90.43
2023-09-03T05:36:01.443Z,90.67
2023-09-03T05:38:29.407Z,90.38
2023-09-03T05:41:00.112Z,90.74
2023-09-03T05:43:28.407Z,91.02
2023-09-03T05:45:56.470Z,91.19
2023-09-03T05:48:24.695Z,90.91
2023-09-03T05:50:59.039Z,90.40
2023-09-03T05:53:27.144Z,89.90
2023-09-03T05:55:56.308Z,90.38
2023-09-03T05:58:25.712Z,90.04
2023-09-03T06:00:53.777Z,89.95
2023-09-03T06:03:22.012Z,89.34
2023-09-03T06:05:50.118Z,90.02
2023-09-03T06:08:18.135Z,89.98
2023-09-03T06:10:46.344Z,90.22
2023-09-03T06:13:14.312Z,89.21
2023-09-03T06:15:44.079Z,89.45
2023-09-03T06:18:13.330Z,90.06
2023-09-03T06:20:41.359Z,90.88
2023-09-03T06:23:10.180Z,91.37
2023-09-03T06:25:39.317Z,91.13
2023-09-03T06:28:07.632Z,91.97
2023-09-03T06:30:35.673Z,92.03
2023-09-03T06:33:06.111Z,92.61
2023-09-03T06:35:34.064Z,93.21
2023-09-03T06:38:01.999Z,93.82
2023-09-03T06:40:30.050Z,93.56
2023-09-03T06:42:58.252Z,93.74
2023-09-03T06:45:26.217Z,93.68
2023-09-03T06:47:54.168Z,93.07
2023-09-03T06:50:23.805Z,92.87
2023-09-03T06:52:51.828Z,92.67
2023-09-03T06:55:20.005Z,92.31
2023-09-03T06:57:48.080Z,92.01
2023-09-03T07:00:17.016Z,91.90
2023-09-03T07:02:45.112Z,92.16
2023-09-03T07:05:15.335Z,92.25
2023-09-03T07:07:45.017Z,92.27
2023-09-03T07:10:13.072Z,92.65
2023-09-03T07:12:41.323Z,92.48
2023-09-03T07:15:10.528Z,92.79
2023-09-03T07:17:40.698Z,92.89
2023-09-03T07:20:10.272Z,93.11
2023-09-03T07:22:38.391Z,92.45
2023-09-03T07:25:13.370Z,92.24
2023-09-03T07:27:41.772Z,91.84
2023-09-03T07:30:10.655Z,90.73
2023-09-03T07:32:39.878Z,90.30
2023-09-03T07:35:09.345Z,90.13
2023-09-03T07:37:37.455Z,89.97
2023-09-03T07:40:09.402Z,89.14
2023-09-03T07:42:41.982Z,88.81
2023-09-03T07:45:12.897Z,88.60
2023-09-03T07:47:40.948Z,87.69
2023-09-03T07:50:09.815Z,87.09
2023-09-03T07:52:38.113Z,86.60
2023-09-03T07:55:08.715Z,86.04
2023-09-03T07:57:36.772Z,85.42
2023-09-03T08:00:06.217Z,84.67
2023-09-03T08:02:34.252Z,84.03
2023-09-03T08:05:02.329Z,82.75
2023-09-03T08:07:30.542Z,82.36
2023-09-03T08:09:58.508Z,81.87
2023-09-03T08:12:27.809Z,81.84
2023-09-03T08:14:58.181Z,81.15
2023-09-03T08:17:27.778Z,79.21
2023-09-03T08:19:55.933Z,80.62
2023-09-03T08:22:23.842Z,80.56
2023-09-03T08:24:52.117Z,80.37
2023-09-03T08:27:20.144Z,79.58
2023-09-03T08:29:49.646Z,78.70
2023-09-03T08:32:20.549Z,77.27
2023-09-03T08:34:48.513Z,77.82
2023-09-03T08:37:16.528Z,76.98
2023-09-03T08:39:44.811Z,76.57
2023-09-03T08:42:15.559Z,76.21
2023-09-03T08:44:51.849Z,75.92
2023-09-03T08:47:20.260Z,75.51
2023-09-03T08:49:49.570Z,73.80
2023-09-03T08:52:18.157Z,73.36
2023-09-03T08:54:46.458Z,73.76
2023-09-03T08:57:14.557Z,74.98
2023-09-03T08:59:42.733Z,74.90
2023-09-03T09:02:16.491Z,74.94
2023-09-03T09:04:44.875Z,74.61
2023-09-03T09:07:13.121Z,73.43
2023-09-03T09:09:44.439Z,73.70
2023-09-03T09:12:19.759Z,74.72
2023-09-03T09:14:55.073Z,74.16
2023-09-03T09:17:27.300Z,73.06
2023-09-03T09:19:55.379Z,71.71
2023-09-03T09:22:24.723Z,72.62
2023-09-03T09:24:54.891Z,72.84
2023-09-03T09:27:24.795Z,72.54
2023-09-03T09:29:52.742Z,71.53
2023-09-03T09:32:25.346Z,71.95
2023-09-03T09:34:55.396Z,71.77
2023-09-03T09:37:23.484Z,70.46
2023-09-03T09:39:52.133Z,70.28
2023-09-03T09:42:20.688Z,68.37
2023-09-03T09:45:00.416Z,69.89
2023-09-03T09:47:30.497Z,68.35
2023-09-03T09:49:58.597Z,68.87
2023-09-03T09:52:36.384Z,67.75
2023-09-03T09:55:09.315Z,66.11
2023-09-03T09:57:42.550Z,66.65
2023-09-03T10:00:12.431Z,66.92
2023-09-03T10:02:41.846Z,65.57
2023-09-03T10:05:12.451Z,64.75
2023-09-03T10:07:42.191Z,63.36
2023-09-03T10:10:11.778Z,62.69
2023-09-03T10:12:40.918Z,62.08
2023-09-03T10:15:10.760Z,61.95
2023-09-03T10:17:42.381Z,62.89
2023-09-03T10:20:13.875Z,62.07
2023-09-03T10:22:44.006Z,61.43
2023-09-03T10:25:16.639Z,58.99
2023-09-03T10:27:51.314Z,59.38
2023-09-03T10:30:24.959Z,60.71
2023-09-03T10:32:55.675Z,61.42
2023-09-03T10:35:24.266Z,59.99
2023-09-03T10:37:52.583Z,60.89
2023-09-03T10:40:22.240Z,59.89
2023-09-03T10:42:50.351Z,59.80
2023-09-03T10:45:19.445Z,58.70
2023-09-03T10:48:06.421Z,59.98
2023-09-03T10:50:45.766Z,59.04
2023-09-03T10:53:38.399Z,58.91
2023-09-03T10:56:14.201Z,59.80
2023-09-03T10:58:56.912Z,60.29
2023-09-03T11:01:27.825Z,58.78
2023-09-03T11:04:06.930Z,59.58
2023-09-03T11:06:36.643Z,58.83
2023-09-03T11:09:25.990Z,58.44
2023-09-03T11:12:02.440Z,59.54
2023-09-03T11:14:32.103Z,58.50
2023-09-03T11:17:00.704Z,59.65
2023-09-03T11:19:40.997Z,58.70
2023-09-03T11:22:09.108Z,59.90
2023-09-03T11:24:47.438Z,59.81
2023-09-03T11:27:15.769Z,58.64
2023-09-03T11:29:43.794Z,58.48
2023-09-03T11:32:12.104Z,57.60
2023-09-03T11:34:41.678Z,58.03
2023-09-03T11:37:10.915Z,57.99
2023-09-03T11:39:39.004Z,58.25
2023-09-03T11:42:15.474Z,59.31
2023-09-03T11:44:43.646Z,59.54
2023-09-03T11:47:11.731Z,58.86
2023-09-03T11:49:46.370Z,57.70
2023-09-03T11:52:15.495Z,58.09
2023-09-03T11:54:44.256Z,58.37
2023-09-03T11:57:14.865Z,56.87
2023-09-03T11:59:44.247Z,57.24
2023-09-03T12:02:13.017Z,56.49
2023-09-03T12:04:45.090Z,56.16
2023-09-03T12:07:18.768Z,55.30
2023-09-03T12:09:50.615Z,56.61
2023-09-03T12:12:19.207Z,55.61
2023-09-03T12:14:47.381Z,56.67
2023-09-03T12:17:24.336Z,55.80
2023-09-03T12:19:53.886Z,55.39
2023-09-03T12:22:23.912Z,55.77
2023-09-03T12:24:52.308Z,52.31
2023-09-03T12:27:20.517Z,54.58
2023-09-03T12:29:53.024Z,54.51
2023-09-03T12:32:35.759Z,53.74
2023-09-03T12:35:17.660Z,54.08
2023-09-03T12:37:45.750Z,55.19
2023-09-03T12:40:13.849Z,55.63
2023-09-03T12:42:41.835Z,56.94
2023-09-03T12:45:11.216Z,54.78
2023-09-03T12:47:42.142Z,54.54
2023-09-03T12:50:10.780Z,53.13
2023-09-03T12:52:40.394Z,53.03
2023-09-03T12:55:09.199Z,51.71
2023-09-03T12:57:37.303Z,51.30
2023-09-03T13:00:09.003Z,51.62
2023-09-03T13:02:39.034Z,52.02
2023-09-03T13:05:07.828Z,51.92
2023-09-03T13:07:35.927Z,51.84
2023-09-03T13:10:05.920Z,51.80
2023-09-03T13:12:34.113Z,51.85
2023-09-03T13:15:02.035Z,51.64
2023-09-03T13:17:32.080Z,49.93
2023-09-03T13:20:00.464Z,49.57
2023-09-03T13:22:28.435Z,50.83
2023-09-03T13:24:56.407Z,50.71
2023-09-03T13:27:25.888Z,50.63
2023-09-03T13:29:53.856Z,51.09
2023-09-03T13:32:21.912Z,50.99
2023-09-03T13:34:49.889Z,50.33
2023-09-03T13:37:17.869Z,50.17
2023-09-03T13:39:45.837Z,51.33
2023-09-03T13:42:13.819Z,50.62
2023-09-03T13:44:43.110Z,51.04
2023-09-03T13:47:11.173Z,51.18
2023-09-03T13:49:39.121Z,49.92
2023-09-03T13:52:07.460Z,49.92
2023-09-03T13:54:35.503Z,50.67
2023-09-03T13:57:03.497Z,49.87
2023-09-03T13:59:32.050Z,49.68
2023-09-03T14:02:01.521Z,49.82
2023-09-03T14:04:29.452Z,50.31
2023-09-03T14:06:57.439Z,51.39
2023-09-03T14:09:25.644Z,51.09
2023-09-03T14:11:54.415Z,51.92
2023-09-03T14:14:22.460Z,51.67
2023-09-03T14:16:50.580Z,51.39
2023-09-03T14:19:22.367Z,51.48
2023-09-03T14:21:51.765Z,50.63
2023-09-03T14:24:19.713Z,51.75
2023-09-03T14:26:47.929Z,51.21
2023-09-03T14:29:17.626Z,51.77
2023-09-03T14:31:53.546Z,51.29
2023-09-03T14:34:23.040Z,50.70
2023-09-03T14:36:51.045Z,49.96
2023-09-03T14:39:21.646Z,51.16
2023-09-03T14:41:51.544Z,50.67
2023-09-03T14:44:19.588Z,51.27
2023-09-03T14:46:47.544Z,51.51
2023-09-03T14:49:20.820Z,51.55
2023-09-03T14:51:50.436Z,51.42
2023-09-03T14:54:18.709Z,51.25
2023-09-03T14:56:46.980Z,52.23
2023-09-03T14:59:15.032Z,51.65
2023-09-03T15:01:43.097Z,51.62
2023-09-03T15:04:11.059Z,51.89
2023-09-03T15:06:39.222Z,52.25
2023-09-03T15:09:09.108Z,50.98
2023-09-03T15:11:37.559Z,51.45
2023-09-03T15:14:15.316Z,50.17
2023-09-03T15:16:44.681Z,50.65
2023-09-03T15:19:15.178Z,50.19
2023-09-03T15:21:44.610Z,51.17
2023-09-03T15:24:14.227Z,50.65
2023-09-03T15:26:42.126Z,52.13
2023-09-03T15:29:10.095Z,53.02
2023-09-03T15:31:38.353Z,51.86
2023-09-03T15:34:10.004Z,50.54
2023-09-03T15:36:39.979Z,51.53
2023-09-03T15:39:07.906Z,52.05
2023-09-03T15:41:37.273Z,51.65
2023-09-03T15:44:05.252Z,51.36
2023-09-03T15:46:33.242Z,50.68
2023-09-03T15:49:02.161Z,51.90
2023-09-03T15:51:30.747Z,51.15
2023-09-03T15:53:58.769Z,51.32
2023-09-03T15:56:26.836Z,51.14
2023-09-03T15:58:57.191Z,51.86
2023-09-03T16:01:25.350Z,52.91
2023-09-03T16:03:53.401Z,51.36
2023-09-03T16:06:22.054Z,52.37
2023-09-03T16:08:49.964Z,52.48
2023-09-03T16:11:18.869Z,53.39
2023-09-03T16:13:48.659Z,53.88
2023-09-03T16:16:18.080Z,53.78
2023-09-03T16:18:46.436Z,53.46
2023-09-03T16:21:15.822Z,53.37
2023-09-03T16:23:44.064Z,52.96
2023-09-03T16:26:12.301Z,53.67
2023-09-03T16:28:40.248Z,54.15
2023-09-03T16:31:08.293Z,54.51
2023-09-03T16:33:37.736Z,54.95
2023-09-03T16:36:06.188Z,54.85
2023-09-03T16:38:34.252Z,55.78
2023-09-03T16:41:02.180Z,55.36
2023-09-03T16:43:30.415Z,55.48
2023-09-03T16:45:58.349Z,55.72
2023-09-03T16:48:28.393Z,55.38
2023-09-03T16:50:57.658Z,55.85
2023-09-03T16:53:25.742Z,56.41
2023-09-03T16:55:53.731Z,56.39
2023-09-03T16:58:23.065Z,56.31
2023-09-03T17:00:51.356Z,56.70
2023-09-03T17:03:19.511Z,56.84
2023-09-03T17:05:47.600Z,57.14
2023-09-03T17:08:16.939Z,57.36
2023-09-03T17:10:45.425Z,57.64
2023-09-03T17:13:13.509Z,57.50
2023-09-03T17:15:42.289Z,58.14
2023-09-03T17:18:11.254Z,58.86
2023-09-03T17:20:43.003Z,59.98
2023-09-03T17:23:11.181Z,61.80
2023-09-03T17:25:40.530Z,62.70
2023-09-03T17:28:09.324Z,64.01
2023-09-03T17:30:41.445Z,64.14
2023-09-03T17:33:09.647Z,64.78
2023-09-03T17:35:38.126Z,64.74
2023-09-03T17:38:07.603Z,65.69
2023-09-03T17:40:39.853Z,65.65
2023-09-03T17:43:09.316Z,65.44
2023-09-03T17:45:40.760Z,65.84
2023-09-03T17:48:09.061Z,66.64
2023-09-03T17:50:37.256Z,66.69
2023-09-03T17:53:07.743Z,67.24
2023-09-03T17:55:35.763Z,67.74
2023-09-03T17:58:08.811Z,68.41
2023-09-03T18:00:39.561Z,68.96
2023-09-03T18:03:09.437Z,69.10
2023-09-03T18:05:39.902Z,69.33
2023-09-03T18:08:08.353Z,69.13
2023-09-03T18:10:36.439Z,69.45
2023-09-03T18:13:06.959Z,69.43
2023-09-03T18:15:35.418Z,68.95
2023-09-03T18:18:09.515Z,68.79
2023-09-03T18:20:39.925Z,68.61
2023-09-03T18:23:07.982Z,68.87
2023-09-03T18:25:36.069Z,68.76
2023-09-03T18:28:04.034Z,69.24
2023-09-03T18:30:32.429Z,69.66
2023-09-03T18:33:00.552Z,69.56
2023-09-03T18:35:31.621Z,69.90
2023-09-03T18:37:59.723Z,69.84
2023-09-03T18:40:28.481Z,70.00
2023-09-03T18:42:58.113Z,70.55
2023-09-03T18:45:27.387Z,70.25
2023-09-03T18:47:58.519Z,70.99
2023-09-03T18:50:27.620Z,71.43
2023-09-03T18:52:59.031Z,71.34
2023-09-03T18:55:27.108Z,70.93
2023-09-03T18:57:55.175Z,71.04
2023-09-03T19:00:23.882Z,70.89
2023-09-03T19:02:53.379Z,70.96
2023-09-03T19:05:29.423Z,71.14
2023-09-03T19:07:59.287Z,70.66
2023-09-03T19:10:27.198Z,70.56
2023-09-03T19:12:57.374Z,70.52
2023-09-03T19:15:25.542Z,70.45
2023-09-03T19:17:58.135Z,70.46
2023-09-03T19:20:28.133Z,70.49
2023-09-03T19:22:57.782Z,70.08
2023-09-03T19:25:27.319Z,70.19
2023-09-03T19:27:56.554Z,70.20
2023-09-03T19:30:24.766Z,70.25
2023-09-03T19:32:56.100Z,70.22
2023-09-03T19:35:42.240Z,70.41
2023-09-03T19:38:25.134Z,70.85
2023-09-03T19:41:09.175Z,70.69
2023-09-03T19:43:54.193Z,70.52
2023-09-03T19:46:23.903Z,71.36
2023-09-03T19:48:54.243Z,71.67
2023-09-03T19:51:30.600Z,71.89
2023-09-03T19:54:07.485Z,72.61
2023-09-03T19:56:40.357Z,72.70
2023-09-03T19:59:09.132Z,73.20
2023-09-03T20:01:38.375Z,73.18
2023-09-03T20:04:08.263Z,72.91
2023-09-03T20:06:36.917Z,73.82
2023-09-03T20:09:06.887Z,73.65
2023-09-03T20:11:36.517Z,73.51
2023-09-03T20:14:04.596Z,73.73
2023-09-03T20:16:32.542Z,73.83
2023-09-03T20:19:00.624Z,73.78
2023-09-03T20:21:28.857Z,73.65
2023-09-03T20:23:56.826Z,74.55
2023-09-03T20:26:25.671Z,74.25
2023-09-03T20:28:55.209Z,74.34
2023-09-03T20:31:23.294Z,75.35
2023-09-03T20:33:51.975Z,75.64
2023-09-03T20:36:19.930Z,75.36
2023-09-03T20:38:48.055Z,75.68
2023-09-03T20:41:16.054Z,75.93
2023-09-03T20:43:44.076Z,75.72
2023-09-03T20:46:13.615Z,75.42
2023-09-03T20:48:41.606Z,74.97
2023-09-03T20:51:09.675Z,75.07
2023-09-03T20:53:37.830Z,76.11
2023-09-03T20:56:06.337Z,76.11
2023-09-03T20:58:34.361Z,76.57
2023-09-03T21:01:02.432Z,76.90
2023-09-03T21:03:37.269Z,76.83
2023-09-03T21:06:05.398Z,76.89
2023-09-03T21:08:33.572Z,76.99
2023-09-03T21:11:02.660Z,77.01
2023-09-03T21:13:31.812Z,77.20
2023-09-03T21:16:00.534Z,77.52
2023-09-03T21:18:29.472Z,77.37
2023-09-03T21:21:05.944Z,78.03
2023-09-03T21:23:36.240Z,78.81
2023-09-03T21:26:05.619Z,78.72
2023-09-03T21:28:33.862Z,78.54
2023-09-03T21:31:03.748Z,79.46
2023-09-03T21:33:34.605Z,79.14
2023-09-03T21:36:09.431Z,79.67
2023-09-03T21:38:37.468Z,80.36
2023-09-03T21:41:11.442Z,81.12
2023-09-03T21:43:39.907Z,80.66
2023-09-03T21:46:08.296Z,81.00
2023-09-03T21:48:44.136Z,81.33
2023-09-03T21:51:19.990Z,81.54
2023-09-03T21:53:51.430Z,80.67
2023-09-03T21:56:28.303Z,80.51
2023-09-03T21:59:02.257Z,80.05
2023-09-03T22:01:33.315Z,79.75
2023-09-03T22:04:05.453Z,80.33
2023-09-03T22:06:34.920Z,80.12
2023-09-03T22:09:08.907Z,79.88
2023-09-03T22:11:38.414Z,80.44
2023-09-03T22:14:09.483Z,80.09
2023-09-03T22:16:39.650Z,80.43
2023-09-03T22:19:24.160Z,80.38
2023-09-03T22:21:59.217Z,80.50
2023-09-03T22:24:28.772Z,80.06
2023-09-03T22:26:56.695Z,80.43
2023-09-03T22:29:24.978Z,80.22
2023-09-03T22:31:52.980Z,80.22
2023-09-03T22:34:21.098Z,80.05
2023-09-03T22:36:51.630Z,79.99
2023-09-03T22:39:21.474Z,80.46
2023-09-03T22:41:51.509Z,80.64
2023-09-03T22:44:19.526Z,80.68
2023-09-03T22:46:51.835Z,81.25
2023-09-03T22:49:22.183Z,81.22
2023-09-03T22:51:52.892Z,81.28
2023-09-03T22:54:22.536Z,81.17
2023-09-03T22:56:50.560Z,81.52
2023-09-03T22:59:18.673Z,80.98
2023-09-03T23:01:47.177Z,81.22
2023-09-03T23:04:15.439Z,81.33
2023-09-03T23:06:46.389Z,81.08
2023-09-03T23:09:15.208Z,81.34
2023-09-03T23:11:44.824Z,81.98
2023-09-03T23:14:14.539Z,82.31
2023-09-03T23:16:42.654Z,82.53
2023-09-03T23:19:10.682Z,82.28
2023-09-03T23:21:39.683Z,82.16
2023-09-03T23:24:08.464Z,82.89
2023-09-03T23:26:36.428Z,82.89
2023-09-03T23:29:05.896Z,83.13
2023-09-03T23:31:35.825Z,82.77
2023-09-03T23:34:04.051Z,82.89
2023-09-03T23:36:32.902Z,82.48
2023-09-03T23:39:00.888Z,81.57
2023-09-03T23:41:28.874Z,82.29
2023-09-03T23:43:56.877Z,82.31
2023-09-03T23:46:26.428Z,82.38
2023-09-03T23:48:54.617Z,82.09
2023-09-03T23:51:22.673Z,82.79
2023-09-03T23:53:50.818Z,82.81
2023-09-03T23:56:19.111Z,83.24
2023-09-03T23:58:47.213Z,82.41
